Time;durP1;ratioP1;P1;durP2;ratioP2;P2;SDS_P1;SDS_P2;PMS_P1;PMS_P2;Temp;Humidity;BMP_temperature;BMP_pressure;BME280_temperature;BME280_humidity;BME280_pressure;Samples;Min_cycle;Max_cycle;Signal;HPM_P1;HPM_P2
2022/03/15 04:39:44;;;;;;;9.90;5.40;;;;;;;1.93;100.00;100021.16;5016329;28;20931;-83
2022/03/15 04:42:11;;;;;;;10.32;5.20;;;;;;;2.06;100.00;100034.53;5019604;28;20073;-83
2022/03/15 04:44:38;;;;;;;7.57;5.20;;;;;;;2.15;100.00;100022.28;5028303;28;20444;-83
2022/03/15 04:47:05;;;;;;;7.97;5.15;;;;;;;2.29;100.00;100028.38;5010384;28;20053;-84
2022/03/15 04:49:32;;;;;;;8.43;5.70;;;;;;;2.32;100.00;100013.91;5009486;28;20041;-83
2022/03/15 04:51:58;;;;;;;11.40;4.88;;;;;;;2.33;100.00;100018.28;5014168;28;20053;-82
2022/03/15 04:54:25;;;;;;;7.60;4.80;;;;;;;2.40;100.00;100022.22;5011348;28;20058;-83
2022/03/15 04:56:53;;;;;;;8.57;4.85;;;;;;;2.36;100.00;100006.47;5020734;28;20046;-83
2022/03/15 04:59:19;;;;;;;7.05;4.97;;;;;;;2.45;100.00;100021.91;5022536;28;20474;-83
2022/03/15 05:01:46;;;;;;;8.55;4.63;;;;;;;2.48;100.00;100016.31;5027592;28;20057;-83
2022/03/15 05:04:13;;;;;;;6.72;5.00;;;;;;;2.41;100.00;100017.72;5027184;28;20065;-83
2022/03/15 05:06:39;;;;;;;11.95;5.50;;;;;;;2.35;100.00;100000.25;5027645;28;20404;-83
2022/03/15 05:09:06;;;;;;;10.73;5.57;;;;;;;2.37;100.00;100009.03;5027525;28;20079;-84
2022/03/15 05:11:32;;;;;;;6.97;4.70;;;;;;;2.45;100.00;100008.47;5009606;28;20061;-83
2022/03/15 05:14:01;;;;;;;10.32;5.13;;;;;;;2.59;100.00;100028.94;5013050;28;20116;-83
2022/03/15 05:16:28;;;;;;;8.98;4.90;;;;;;;2.50;100.00;100003.66;5027321;28;20072;-83
2022/03/15 05:18:55;;;;;;;6.55;5.00;;;;;;;2.46;100.00;100002.16;5025452;28;20413;-83
2022/03/15 05:21:25;;;;;;;8.60;5.00;;;;;;;2.51;100.00;100015.22;5009421;28;20509;-83
2022/03/15 05:23:53;;;;;;;11.20;4.88;;;;;;;2.48;100.00;100010.94;5013887;28;20104;-83
2022/03/15 05:26:21;;;;;;;9.82;5.60;;;;;;;2.50;100.00;100018.88;5015311;28;20057;-83
2022/03/15 05:28:49;;;;;;;13.60;6.35;;;;;;;2.65;100.00;100015.09;5026176;28;20046;-83
2022/03/15 05:31:18;;;;;;;13.32;5.95;;;;;;;2.62;100.00;100009.91;5027181;28;20160;-83
2022/03/15 05:33:44;;;;;;;8.93;5.78;;;;;;;2.58;100.00;100006.59;5026524;28;20127;-83
2022/03/15 05:36:11;;;;;;;8.05;5.50;;;;;;;2.61;100.00;100013.59;5025965;28;20088;-83
2022/03/15 05:38:38;;;;;;;15.15;5.63;;;;;;;2.62;100.00;100028.69;5038286;28;20112;-83
2022/03/15 05:41:05;;;;;;;11.82;5.70;;;;;;;2.54;100.00;100015.84;5041174;28;20132;-83
2022/03/15 05:43:31;;;;;;;8.00;5.07;;;;;;;2.56;100.00;100023.78;5034771;28;20051;-83
2022/03/15 05:45:58;;;;;;;10.52;4.97;;;;;;;2.56;100.00;100007.69;5046745;28;20056;-83
2022/03/15 05:48:26;;;;;;;10.07;5.28;;;;;;;2.72;100.00;100019.00;5033835;28;20046;-83
2022/03/15 05:50:52;;;;;;;9.70;5.25;;;;;;;2.63;100.00;100000.91;5014595;28;20053;-83
2022/03/15 05:53:19;;;;;;;10.25;5.10;;;;;;;2.74;100.00;100019.78;5016141;28;20045;-82
2022/03/15 05:55:46;;;;;;;7.65;4.68;;;;;;;2.55;100.00;100011.34;5031108;28;20064;-83
2022/03/15 05:58:14;;;;;;;10.90;4.82;;;;;;;2.58;100.00;100005.75;5021322;28;20060;-83
2022/03/15 06:00:42;;;;;;;10.63;4.65;;;;;;;2.71;100.00;100016.44;5021581;28;20046;-83
2022/03/15 06:03:10;;;;;;;9.93;6.40;;;;;;;2.67;100.00;100004.22;5032926;28;20067;-83
2022/03/15 06:05:38;;;;;;;8.60;5.53;;;;;;;2.71;100.00;100003.00;5026615;28;20054;-83
2022/03/15 06:08:06;;;;;;;10.38;5.43;;;;;;;2.64;100.00;99995.41;5032267;28;20085;-83
2022/03/15 06:10:32;;;;;;;8.32;5.80;;;;;;;2.75;100.00;100016.09;5032011;28;20107;-83
2022/03/15 06:12:59;;;;;;;11.98;5.60;;;;;;;2.91;100.00;100017.66;5026235;28;20133;-83
2022/03/15 06:15:26;;;;;;;14.68;5.72;;;;;;;2.87;100.00;100006.28;5034889;28;20057;-83
2022/03/15 06:17:56;;;;;;;7.95;4.70;;;;;;;3.04;100.00;100021.13;5030255;28;20076;-83
2022/03/15 06:20:24;;;;;;;11.25;5.38;;;;;;;3.11;100.00;100011.63;5033586;28;20081;-83
2022/03/15 06:22:53;;;;;;;7.70;4.30;;;;;;;3.13;100.00;100011.50;5032028;28;20088;-83
2022/03/15 06:25:20;;;;;;;9.77;5.45;;;;;;;2.94;100.00;100007.53;5026333;28;20053;-83
2022/03/15 06:27:47;;;;;;;8.95;4.78;;;;;;;2.90;100.00;100006.03;5014105;28;20061;-83
2022/03/15 06:30:15;;;;;;;8.38;4.72;;;;;;;2.95;100.00;100005.69;5020138;28;20069;-83
2022/03/15 06:32:41;;;;;;;14.15;5.28;;;;;;;2.94;100.00;100004.84;5028604;28;20079;-83
2022/03/15 06:35:10;;;;;;;9.20;5.07;;;;;;;3.03;100.00;99999.72;5032584;28;20408;-83
